Time;durP1;ratioP1;P1;durP2;ratioP2;P2;SDS_P1;SDS_P2;PMS_P1;PMS_P2;Temp;Humidity;BMP_temperature;BMP_pressure;BME280_temperature;BME280_humidity;BME280_pressure;Samples;Min_cycle;Max_cycle;Signal;HPM_P1;HPM_P2
2024/03/08 00:47:48;;;;;;;1999.90;999.90;;;;;;;;;;5019569;22;20264;-68
2024/03/08 00:50:33;;;;;;;1999.90;999.90;;;;;;;;;;4952750;28;20705;-66
2024/03/08 00:53:19;;;;;;;1999.90;999.90;;;;;;;;;;4981133;28;20280;-68
2024/03/08 00:56:04;;;;;;;1999.90;999.90;;;;;;;;;;4955563;28;20225;-69
2024/03/08 00:58:49;;;;;;;1999.90;999.90;;;;;;;;;;4951596;29;20279;-68
2024/03/08 01:01:34;;;;;;;1999.90;999.90;;;;;;;;;;4951209;29;20413;-68
2024/03/08 01:04:21;;;;;;;1999.90;999.90;;;;;;;;;;4951536;28;20578;-68
2024/03/08 01:07:06;;;;;;;1999.90;999.90;;;;;;;;;;4951328;28;20221;-68
2024/03/08 01:09:51;;;;;;;1999.90;999.90;;;;;;;;;;4951464;29;20227;-67
2024/03/08 01:12:36;;;;;;;1999.90;999.90;;;;;;;;;;4946726;29;20705;-67
2024/03/08 01:15:21;;;;;;;1999.90;999.90;;;;;;;;;;4933267;29;20213;-68
2024/03/08 01:18:06;;;;;;;1999.90;999.90;;;;;;;;;;4937666;29;20436;-68
2024/03/08 01:20:53;;;;;;;1999.90;999.90;;;;;;;;;;4951288;29;20340;-68
2024/03/08 01:23:38;;;;;;;1999.90;999.90;;;;;;;;;;4951107;29;20213;-68
2024/03/08 01:26:24;;;;;;;1999.90;999.90;;;;;;;;;;4964059;28;20256;-66
2024/03/08 01:29:09;;;;;;;1999.90;999.90;;;;;;;;;;4971611;29;20266;-66
2024/03/08 01:31:54;;;;;;;1999.90;999.90;;;;;;;;;;4951023;29;20230;-65
2024/03/08 01:34:39;;;;;;;1999.90;999.90;;;;;;;;;;4953175;29;20197;-66
2024/03/08 01:37:26;;;;;;;1999.90;999.90;;;;;;;;;;4952609;29;20248;-67
2024/03/08 01:40:11;;;;;;;1999.90;999.90;;;;;;;;;;4950103;29;20209;-64
2024/03/08 01:42:57;;;;;;;1999.90;999.90;;;;;;;;;;4952538;29;20217;-66
2024/03/08 01:45:42;;;;;;;1999.90;999.90;;;;;;;;;;4970237;28;20244;-66
2024/03/08 01:48:27;;;;;;;1999.90;999.90;;;;;;;;;;4954554;29;20245;-66
2024/03/08 01:51:14;;;;;;;1999.90;999.90;;;;;;;;;;4950405;29;20209;-67
2024/03/08 01:54:02;;;;;;;1999.90;999.90;;;;;;;;;;4949463;29;20426;-67
2024/03/08 01:56:48;;;;;;;1999.90;999.90;;;;;;;;;;4949340;29;20590;-66
2024/03/08 01:59:33;;;;;;;1999.90;999.90;;;;;;;;;;4957087;29;20212;-66
2024/03/08 02:02:19;;;;;;;1999.90;999.90;;;;;;;;;;4970154;29;20209;-67
2024/03/08 02:05:05;;;;;;;1999.90;999.90;;;;;;;;;;4963057;29;20213;-68
2024/03/08 02:07:51;;;;;;;1999.90;999.90;;;;;;;;;;4952900;29;20279;-67
2024/03/08 02:10:37;;;;;;;1999.90;999.90;;;;;;;;;;4952929;29;20204;-68
2024/03/08 02:13:23;;;;;;;1999.90;999.90;;;;;;;;;;4950499;29;20283;-68
2024/03/08 02:16:08;;;;;;;1999.90;999.90;;;;;;;;;;4950583;28;20232;-68
2024/03/08 02:18:53;;;;;;;1999.90;999.90;;;;;;;;;;4950291;29;20232;-68
2024/03/08 02:21:39;;;;;;;1999.90;999.90;;;;;;;;;;4950420;29;20208;-68
2024/03/08 02:24:25;;;;;;;1999.90;999.90;;;;;;;;;;4950519;29;20804;-68
2024/03/08 02:27:11;;;;;;;1999.90;999.90;;;;;;;;;;4950512;28;20224;-68
2024/03/08 02:29:56;;;;;;;1999.90;999.90;;;;;;;;;;4953916;29;20568;-68
2024/03/08 02:32:41;;;;;;;1999.90;999.90;;;;;;;;;;4953241;29;20212;-68
2024/03/08 02:35:26;;;;;;;1999.90;999.90;;;;;;;;;;4952086;28;20208;-68
2024/03/08 02:38:13;;;;;;;1999.90;999.90;;;;;;;;;;4951784;29;20227;-67
2024/03/08 02:40:58;;;;;;;1999.90;999.90;;;;;;;;;;4945339;29;20209;-68
2024/03/08 02:43:45;;;;;;;1999.90;999.90;;;;;;;;;;4945933;29;20692;-68
2024/03/08 02:46:31;;;;;;;1999.90;999.90;;;;;;;;;;4933053;29;20426;-68
2024/03/08 02:49:16;;;;;;;1999.90;999.90;;;;;;;;;;4946598;29;20209;-68
2024/03/08 02:52:01;;;;;;;1999.90;999.90;;;;;;;;;;4953410;29;20600;-68
2024/03/08 02:54:48;;;;;;;1999.90;999.90;;;;;;;;;;4953494;29;20700;-68
2024/03/08 02:57:33;;;;;;;1999.90;999.90;;;;;;;;;;4934124;29;20245;-68
2024/03/08 03:00:19;;;;;;;1999.90;999.90;;;;;;;;;;4947467;29;21040;-68
2024/03/08 03:03:04;;;;;;;1999.90;999.90;;;;;;;;;;4952861;29;20415;-68
2024/03/08 03:05:49;;;;;;;1999.90;999.90;;;;;;;;;;4941121;29;20728;-68
2024/03/08 03:08:34;;;;;;;1999.90;999.90;;;;;;;;;;4935048;29;20197;-68
2024/03/08 03:11:22;;;;;;;1999.90;999.90;;;;;;;;;;4934324;29;20605;-68
2024/03/08 03:14:09;;;;;;;1999.90;999.90;;;;;;;;;;4936939;29;20319;-68
2024/03/08 03:16:54;;;;;;;1999.90;999.90;;;;;;;;;;4953087;28;20229;-68
2024/03/08 03:19:42;;;;;;;1999.90;999.90;;;;;;;;;;4951436;29;20227;-68
2024/03/08 03:22:27;;;;;;;1999.90;999.90;;;;;;;;;;4952870;29;20216;-68
2024/03/08 03:25:12;;;;;;;1999.90;999.90;;;;;;;;;;4951382;29;20231;-69
2024/03/08 03:27:58;;;;;;;1999.90;999.90;;;;;;;;;;4952922;29;20205;-68
2024/03/08 03:30:43;;;;;;;1999.90;999.90;;;;;;;;;;4951275;29;20411;-68
2024/03/08 03:33:28;;;;;;;1999.90;999.90;;;;;;;;;;4951753;29;20320;-68
2024/03/08 03:36:14;;;;;;;1999.90;999.90;;;;;;;;;;4940566;29;20229;-68
2024/03/08 03:39:10;;;;;;;1999.90;999.90;;;;;;;;;;4950442;28;20712;-68
2024/03/08 03:41:56;;;;;;;1999.90;999.90;;;;;;;;;;4952578;29;20205;-68
2024/03/08 03:44:43;;;;;;;1999.90;999.90;;;;;;;;;;4943868;29;20220;-68
2024/03/08 03:47:28;;;;;;;1999.90;999.90;;;;;;;;;;4933440;29;20236;-68
2024/03/08 03:50:13;;;;;;;1999.90;999.90;;;;;;;;;;4947917;29;20691;-68
2024/03/08 03:52:58;;;;;;;1999.90;999.90;;;;;;;;;;4951628;29;20458;-68
2024/03/08 03:55:43;;;;;;;1999.90;999.90;;;;;;;;;;4945173;28;20596;-68
2024/03/08 03:58:28;;;;;;;1999.90;999.90;;;;;;;;;;4951132;29;20220;-68
2024/03/08 04:01:14;;;;;;;1999.90;999.90;;;;;;;;;;4933395;29;20336;-68
2024/03/08 04:03:59;;;;;;;1999.90;999.90;;;;;;;;;;4937141;29;20228;-68
2024/03/08 04:06:44;;;;;;;1999.90;999.90;;;;;;;;;;4952359;28;20591;-68
2024/03/08 04:09:29;;;;;;;1999.90;999.90;;;;;;;;;;4936335;29;20221;-69
2024/03/08 04:12:15;;;;;;;1999.90;999.90;;;;;;;;;;4933063;29;20309;-68
2024/03/08 04:15:00;;;;;;;1999.90;999.90;;;;;;;;;;4943098;29;20209;-68
2024/03/08 04:17:47;;;;;;;1999.90;999.90;;;;;;;;;;4952134;29;20224;-68
2024/03/08 04:20:31;;;;;;;1999.90;999.90;;;;;;;;;;4950438;29;20294;-68
2024/03/08 04:23:17;;;;;;;1999.90;999.90;;;;;;;;;;4951801;29;20203;-68
2024/03/08 04:26:03;;;;;;;1999.90;999.90;;;;;;;;;;4933267;29;20276;-68
2024/03/08 04:28:48;;;;;;;1999.90;999.90;;;;;;;;;;4933977;29;20218;-68
2024/03/08 04:31:33;;;;;;;1999.90;999.90;;;;;;;;;;4933001;29;20349;-68
2024/03/08 04:34:19;;;;;;;1999.90;999.90;;;;;;;;;;4933951;29;20214;-68
2024/03/08 04:37:05;;;;;;;1999.90;999.90;;;;;;;;;;4932709;29;20451;-67
2024/03/08 04:39:50;;;;;;;1999.90;999.90;;;;;;;;;;4943344;29;20207;-68
2024/03/08 04:42:35;;;;;;;1999.90;999.90;;;;;;;;;;4950740;29;20777;-68
2024/03/08 04:45:21;;;;;;;1999.90;999.90;;;;;;;;;;4937986;29;20329;-68
2024/03/08 04:48:08;;;;;;;1999.90;999.90;;;;;;;;;;4950976;29;20232;-68
2024/03/08 04:50:55;;;;;;;1999.90;999.90;;;;;;;;;;4932165;29;20217;-68
2024/03/08 04:53:40;;;;;;;1999.90;999.90;;;;;;;;;;4940865;29;20213;-68
2024/03/08 04:56:25;;;;;;;1999.90;999.90;;;;;;;;;;4951670;28;20358;-68
2024/03/08 04:59:10;;;;;;;1999.90;999.90;;;;;;;;;;4948431;29;20228;-68
2024/03/08 05:01:56;;;;;;;1999.90;999.90;;;;;;;;;;4932293;29;20213;-68
2024/03/08 05:04:42;;;;;;;1999.90;999.90;;;;;;;;;;4942518;29;20693;-68
2024/03/08 05:07:28;;;;;;;1999.90;999.90;;;;;;;;;;4951456;28;20439;-68
2024/03/08 05:10:17;;;;;;;1999.90;999.90;;;;;;;;;;4949790;29;20518;-69
2024/03/08 05:13:02;;;;;;;1999.90;999.90;;;;;;;;;;4932213;29;20230;-68
2024/03/08 05:15:49;;;;;;;1999.90;999.90;;;;;;;;;;4945266;29;20644;-69
2024/03/08 05:18:35;;;;;;;1999.90;999.90;;;;;;;;;;4948166;29;20579;-68
2024/03/08 05:21:20;;;;;;;1999.90;999.90;;;;;;;;;;4938616;29;20999;-68
2024/03/08 05:24:07;;;;;;;1999.90;999.90;;;;;;;;;;4951157;29;20283;-69
2024/03/08 05:26:53;;;;;;;1999.90;999.90;;;;;;;;;;4936852;29;20231;-69
2024/03/08 05:29:38;;;;;;;1999.90;999.90;;;;;;;;;;4932203;29;20197;-69
2024/03/08 05:32:24;;;;;;;1999.90;999.90;;;;;;;;;;4931196;29;20398;-69
2024/03/08 05:35:10;;;;;;;1999.90;999.90;;;;;;;;;;4946251;29;20578;-69
2024/03/08 05:37:55;;;;;;;1999.90;999.90;;;;;;;;;;4943928;29;20209;-68
2024/03/08 05:40:43;;;;;;;1999.90;999.90;;;;;;;;;;4941724;29;20213;-68
2024/03/08 05:43:27;;;;;;;1999.90;999.90;;;;;;;;;;4950936;29;20239;-69
2024/03/08 05:46:16;;;;;;;1999.90;999.90;;;;;;;;;;4932169;29;20240;-69
2024/03/08 05:49:05;;;;;;;1999.90;999.90;;;;;;;;;;4933090;29;20738;-69
2024/03/08 05:51:49;;;;;;;1999.90;999.90;;;;;;;;;;4932953;29;20582;-68
2024/03/08 05:54:34;;;;;;;1999.90;999.90;;;;;;;;;;4936362;29;20442;-68
2024/03/08 05:57:23;;;;;;;1999.90;999.90;;;;;;;;;;4950989;28;20434;-68
2024/03/08 06:00:08;;;;;;;1999.90;999.90;;;;;;;;;;4938819;29;20256;-68
2024/03/08 06:02:53;;;;;;;1999.90;999.90;;;;;;;;;;4941931;29;20433;-69
2024/03/08 06:05:41;;;;;;;1999.90;999.90;;;;;;;;;;4936937;29;20235;-68
2024/03/08 06:08:29;;;;;;;1999.90;999.90;;;;;;;;;;4942784;29;20232;-68
2024/03/08 06:11:14;;;;;;;1999.90;999.90;;;;;;;;;;4952087;29;20408;-68
2024/03/08 06:14:00;;;;;;;1999.90;999.90;;;;;;;;;;4952558;29;20208;-68
2024/03/08 06:16:46;;;;;;;1999.90;999.90;;;;;;;;;;4954156;28;20442;-68
2024/03/08 06:19:31;;;;;;;1999.90;999.90;;;;;;;;;;4934987;29;20775;-68
2024/03/08 06:22:16;;;;;;;1999.90;999.90;;;;;;;;;;4935448;29;20420;-69
2024/03/08 06:25:01;;;;;;;1999.90;999.90;;;;;;;;;;4934546;29;20396;-69
2024/03/08 06:27:46;;;;;;;1999.90;999.90;;;;;;;;;;4935044;29;20329;-68
2024/03/08 06:30:34;;;;;;;1999.90;999.90;;;;;;;;;;4944773;29;20315;-68
2024/03/08 06:33:19;;;;;;;1999.90;999.90;;;;;;;;;;4952518;29;20280;-68
2024/03/08 06:36:04;;;;;;;1999.90;999.90;;;;;;;;;;4941729;29;20236;-68
2024/03/08 06:38:49;;;;;;;1999.90;999.90;;;;;;;;;;4934884;29;20241;-69
2024/03/08 06:41:34;;;;;;;1999.90;999.90;;;;;;;;;;4945271;29;20216;-69
2024/03/08 06:44:21;;;;;;;1999.90;999.90;;;;;;;;;;4953737;28;20208;-68
2024/03/08 06:47:08;;;;;;;1999.90;999.90;;;;;;;;;;4953793;28;20237;-68
2024/03/08 06:49:53;;;;;;;1999.90;999.90;;;;;;;;;;4953659;28;20217;-68
2024/03/08 06:52:38;;;;;;;1999.90;999.90;;;;;;;;;;4952979;28;20251;-68
2024/03/08 06:55:23;;;;;;;1999.90;999.90;;;;;;;;;;4953244;28;20771;-68
2024/03/08 06:58:10;;;;;;;1999.90;999.90;;;;;;;;;;4950215;29;20278;-69
2024/03/08 07:00:58;;;;;;;1999.90;999.90;;;;;;;;;;4952090;29;20464;-68
2024/03/08 07:03:44;;;;;;;1999.90;999.90;;;;;;;;;;4935769;29;20293;-69
2024/03/08 07:06:29;;;;;;;1999.90;999.90;;;;;;;;;;4934148;29;20248;-69
2024/03/08 07:09:16;;;;;;;1999.90;999.90;;;;;;;;;;4934243;29;20232;-68
2024/03/08 07:12:01;;;;;;;1999.90;999.90;;;;;;;;;;4934133;29;20436;-69
2024/03/08 07:14:47;;;;;;;1999.90;999.90;;;;;;;;;;4941947;29;20291;-68
2024/03/08 07:17:34;;;;;;;1999.90;999.90;;;;;;;;;;4953226;28;20720;-69
2024/03/08 07:20:20;;;;;;;1999.90;999.90;;;;;;;;;;4952967;29;20326;-68
2024/03/08 07:23:05;;;;;;;1999.90;999.90;;;;;;;;;;4952947;29;20705;-67
2024/03/08 07:25:50;;;;;;;1999.90;999.90;;;;;;;;;;4953071;28;20311;-69
2024/03/08 07:28:35;;;;;;;1999.90;999.90;;;;;;;;;;4952789;29;20205;-69
2024/03/08 07:31:26;;;;;;;1999.90;999.90;;;;;;;;;;4952275;29;20251;-69
2024/03/08 07:34:11;;;;;;;1999.90;999.90;;;;;;;;;;4953107;29;20588;-69
2024/03/08 07:36:57;;;;;;;1999.90;999.90;;;;;;;;;;4952830;28;20229;-68
2024/03/08 07:39:43;;;;;;;1999.90;999.90;;;;;;;;;;4952203;29;20352;-69
2024/03/08 07:42:28;;;;;;;1999.90;999.90;;;;;;;;;;4952800;29;20209;-68
2024/03/08 07:45:13;;;;;;;1999.90;999.90;;;;;;;;;;4952722;29;20584;-68
2024/03/08 07:47:58;;;;;;;1999.90;999.90;;;;;;;;;;4952038;29;20420;-68
2024/03/08 07:50:43;;;;;;;1999.90;999.90;;;;;;;;;;4943435;29;20916;-68
2024/03/08 07:53:30;;;;;;;1999.90;999.90;;;;;;;;;;4959389;28;20694;-69
2024/03/08 07:56:16;;;;;;;1999.90;999.90;;;;;;;;;;4990111;28;20233;-69
2024/03/08 07:59:03;;;;;;;1999.90;999.90;;;;;;;;;;4938899;28;20228;-69
2024/03/08 08:01:48;;;;;;;1999.90;999.90;;;;;;;;;;4957495;28;20262;-69
2024/03/08 08:04:34;;;;;;;1999.90;999.90;;;;;;;;;;4960319;28;20999;-69
2024/03/08 08:07:19;;;;;;;1999.90;999.90;;;;;;;;;;4956388;28;20619;-69
2024/03/08 08:10:06;;;;;;;1999.90;999.90;;;;;;;;;;4954629;28;20204;-69
2024/03/08 08:12:52;;;;;;;1999.90;999.90;;;;;;;;;;4951328;28;20343;-68
2024/03/08 08:15:37;;;;;;;1999.90;999.90;;;;;;;;;;4952948;28;20212;-68
2024/03/08 08:18:25;;;;;;;1999.90;999.90;;;;;;;;;;4951630;28;20585;-69
2024/03/08 08:21:10;;;;;;;1999.90;999.90;;;;;;;;;;4963184;28;20212;-69
2024/03/08 08:23:55;;;;;;;1999.90;999.90;;;;;;;;;;4949877;28;20225;-70
2024/03/08 08:26:44;;;;;;;1999.90;999.90;;;;;;;;;;4936809;28;20230;-69
2024/03/08 08:29:30;;;;;;;1999.90;999.90;;;;;;;;;;4932692;29;20232;-70
2024/03/08 08:32:15;;;;;;;1999.90;999.90;;;;;;;;;;4938131;29;20204;-68
2024/03/08 08:35:00;;;;;;;1999.90;999.90;;;;;;;;;;5021055;28;20496;-68
2024/03/08 08:37:45;;;;;;;1999.90;999.90;;;;;;;;;;4984734;28;20217;-70
2024/03/08 08:40:31;;;;;;;1999.90;999.90;;;;;;;;;;4932728;29;20228;-70
2024/03/08 08:43:19;;;;;;;1999.90;999.90;;;;;;;;;;4934439;29;20305;-69
2024/03/08 08:46:04;;;;;;;1999.90;999.90;;;;;;;;;;4939126;29;20736;-70
2024/03/08 08:48:49;;;;;;;1999.90;999.90;;;;;;;;;;4935025;29;20561;-69
2024/03/08 08:51:34;;;;;;;1999.90;999.90;;;;;;;;;;4951930;29;20229;-70
2024/03/08 08:54:20;;;;;;;1999.90;999.90;;;;;;;;;;4950289;29;20403;-69
2024/03/08 08:57:07;;;;;;;1999.90;999.90;;;;;;;;;;4932570;29;20784;-70
2024/03/08 08:59:53;;;;;;;1999.90;999.90;;;;;;;;;;4932463;29;20356;-70
2024/03/08 09:02:38;;;;;;;1999.90;999.90;;;;;;;;;;4932698;29;20209;-69
2024/03/08 09:05:24;;;;;;;1999.90;999.90;;;;;;;;;;4932477;29;20229;-70
2024/03/08 09:08:09;;;;;;;1999.90;999.90;;;;;;;;;;4942953;29;20216;-70
2024/03/08 09:10:54;;;;;;;1999.90;999.90;;;;;;;;;;4951587;29;20212;-69
2024/03/08 09:13:39;;;;;;;1999.90;999.90;;;;;;;;;;4950439;29;20331;-69
2024/03/08 09:16:25;;;;;;;1999.90;999.90;;;;;;;;;;4951254;28;20231;-69
2024/03/08 09:19:11;;;;;;;1999.90;999.90;;;;;;;;;;4950712;29;20220;-69
2024/03/08 09:21:56;;;;;;;1999.90;999.90;;;;;;;;;;4949047;29;20216;-70
2024/03/08 09:24:43;;;;;;;1999.90;999.90;;;;;;;;;;4941243;29;20239;-69
2024/03/08 09:27:28;;;;;;;1999.90;999.90;;;;;;;;;;4947762;29;20326;-69
2024/03/08 09:30:15;;;;;;;1999.90;999.90;;;;;;;;;;4932087;29;20694;-70
2024/03/08 09:33:02;;;;;;;1999.90;999.90;;;;;;;;;;4945287;29;20355;-69
2024/03/08 09:35:48;;;;;;;1999.90;999.90;;;;;;;;;;4951180;28;20228;-69
2024/03/08 09:38:34;;;;;;;1999.90;999.90;;;;;;;;;;4951155;29;20212;-69
2024/03/08 09:41:19;;;;;;;1999.90;999.90;;;;;;;;;;4950496;29;20910;-69
2024/03/08 09:44:04;;;;;;;1999.90;999.90;;;;;;;;;;4950296;29;20216;-70
2024/03/08 09:46:51;;;;;;;1999.90;999.90;;;;;;;;;;4949262;28;20236;-70
2024/03/08 09:49:37;;;;;;;1999.90;999.90;;;;;;;;;;4932773;29;20245;-69
2024/03/08 09:52:22;;;;;;;1999.90;999.90;;;;;;;;;;4949814;29;20578;-69
2024/03/08 09:55:08;;;;;;;1999.90;999.90;;;;;;;;;;4950768;29;20228;-70
2024/03/08 10:00:57;;;;;;;1999.90;999.90;;;;;;;;;;4931729;29;20272;-69
2024/03/08 10:03:42;;;;;;;1999.90;999.90;;;;;;;;;;4931965;29;20225;-70
2024/03/08 10:06:28;;;;;;;1999.90;999.90;;;;;;;;;;4934449;29;20279;-69
2024/03/08 10:09:13;;;;;;;1999.90;999.90;;;;;;;;;;4950585;29;20280;-69
2024/03/08 10:11:58;;;;;;;1999.90;999.90;;;;;;;;;;4931885;29;20341;-68
2024/03/08 10:14:43;;;;;;;1999.90;999.90;;;;;;;;;;4931813;29;20872;-69
2024/03/08 10:17:32;;;;;;;1999.90;999.90;;;;;;;;;;4938196;29;20257;-69
2024/03/08 10:20:17;;;;;;;1999.90;999.90;;;;;;;;;;4931551;29;20223;-68
2024/03/08 10:23:05;;;;;;;1999.90;999.90;;;;;;;;;;4941685;29;20213;-69
2024/03/08 10:25:50;;;;;;;1999.90;999.90;;;;;;;;;;4937622;29;20237;-69
2024/03/08 10:28:35;;;;;;;1999.90;999.90;;;;;;;;;;4945402;29;20214;-69
2024/03/08 10:31:20;;;;;;;1999.90;999.90;;;;;;;;;;4950731;29;20570;-70
2024/03/08 10:34:05;;;;;;;1999.90;999.90;;;;;;;;;;4930699;29;20495;-70
2024/03/08 10:36:51;;;;;;;1999.90;999.90;;;;;;;;;;4933434;29;20596;-70
2024/03/08 10:39:38;;;;;;;1999.90;999.90;;;;;;;;;;4948477;29;20235;-70
2024/03/08 10:42:25;;;;;;;1999.90;999.90;;;;;;;;;;4949272;28;20215;-69
2024/03/08 10:45:14;;;;;;;1999.90;999.90;;;;;;;;;;4931127;29;20592;-69
2024/03/08 10:48:05;;;;;;;1999.90;999.90;;;;;;;;;;4939543;28;20586;-69
2024/03/08 10:50:52;;;;;;;1999.90;999.90;;;;;;;;;;4952042;29;20209;-69
2024/03/08 10:53:41;;;;;;;1999.90;999.90;;;;;;;;;;4951360;29;20213;-70
2024/03/08 10:56:28;;;;;;;1999.90;999.90;;;;;;;;;;4951994;28;20510;-70
2024/03/08 10:59:13;;;;;;;1999.90;999.90;;;;;;;;;;4952896;29;20238;-69
2024/03/08 11:01:58;;;;;;;1999.90;999.90;;;;;;;;;;4949385;29;20211;-69
2024/03/08 11:04:46;;;;;;;1999.90;999.90;;;;;;;;;;4934334;29;20210;-69
2024/03/08 11:07:35;;;;;;;1999.90;999.90;;;;;;;;;;4933816;29;20231;-69
2024/03/08 11:10:20;;;;;;;1999.90;999.90;;;;;;;;;;4933943;29;20215;-70
2024/03/08 11:13:26;;;;;;;1999.90;999.90;;;;;;;;;;4944217;29;20206;-70
2024/03/08 11:16:12;;;;;;;1999.90;999.90;;;;;;;;;;4951598;28;20412;-69
2024/03/08 11:19:04;;;;;;;1999.90;999.90;;;;;;;;;;4935563;29;20259;-69
2024/03/08 11:21:57;;;;;;;1999.90;999.90;;;;;;;;;;4934218;29;20217;-70
2024/03/08 11:24:42;;;;;;;1999.90;999.90;;;;;;;;;;4952899;29;20598;-69
2024/03/08 11:27:29;;;;;;;1999.90;999.90;;;;;;;;;;4943590;28;20936;-70
2024/03/08 11:30:23;;;;;;;1999.90;999.90;;;;;;;;;;4952429;29;20203;-70
2024/03/08 11:33:12;;;;;;;1999.90;999.90;;;;;;;;;;4952105;29;20302;-70
2024/03/08 11:36:03;;;;;;;1999.90;999.90;;;;;;;;;;4938113;29;20802;-70
2024/03/08 11:38:49;;;;;;;1999.90;999.90;;;;;;;;;;4952898;29;20201;-70
2024/03/08 11:41:34;;;;;;;1999.90;999.90;;;;;;;;;;4938621;29;20240;-70
2024/03/08 11:44:20;;;;;;;1999.90;999.90;;;;;;;;;;4948179;29;20340;-70
2024/03/08 11:47:11;;;;;;;1999.90;999.90;;;;;;;;;;4935750;29;20753;-69
2024/03/08 11:49:56;;;;;;;1999.90;999.90;;;;;;;;;;4933731;29;20213;-69
2024/03/08 11:52:42;;;;;;;1999.90;999.90;;;;;;;;;;4942185;29;20209;-70
2024/03/08 11:55:28;;;;;;;1999.90;999.90;;;;;;;;;;4953225;28;20694;-70
2024/03/08 11:58:14;;;;;;;1999.90;999.90;;;;;;;;;;4945424;29;20264;-70
2024/03/08 12:01:04;;;;;;;1999.90;999.90;;;;;;;;;;4932960;29;20240;-69
2024/03/08 12:03:55;;;;;;;1999.90;999.90;;;;;;;;;;4936628;29;20323;-69
2024/03/08 12:06:41;;;;;;;1999.90;999.90;;;;;;;;;;4941646;28;20426;-70
2024/03/08 12:09:26;;;;;;;1999.90;999.90;;;;;;;;;;4933630;29;20217;-70
2024/03/08 12:12:11;;;;;;;1999.90;999.90;;;;;;;;;;4935753;29;20204;-69
2024/03/08 12:14:57;;;;;;;1999.90;999.90;;;;;;;;;;4933331;29;20205;-69
2024/03/08 12:17:43;;;;;;;1999.90;999.90;;;;;;;;;;4947125;29;20267;-68
2024/03/08 12:20:30;;;;;;;1999.90;999.90;;;;;;;;;;4933007;29;20228;-69
2024/03/08 12:23:16;;;;;;;1999.90;999.90;;;;;;;;;;4939295;28;20213;-69
2024/03/08 12:26:13;;;;;;;1999.90;999.90;;;;;;;;;;4945042;28;20248;-69
2024/03/08 12:29:15;;;;;;;1999.90;999.90;;;;;;;;;;4944229;29;20220;-69
2024/03/08 12:32:00;;;;;;;1999.90;999.90;;;;;;;;;;4941913;29;20808;-69
2024/03/08 12:34:52;;;;;;;1999.90;999.90;;;;;;;;;;4935252;29;20744;-69
2024/03/08 12:37:39;;;;;;;1999.90;999.90;;;;;;;;;;4941111;28;20649;-69
2024/03/08 12:40:28;;;;;;;1999.90;999.90;;;;;;;;;;4950059;29;20448;-69
2024/03/08 12:43:15;;;;;;;1999.90;999.90;;;;;;;;;;4951451;29;20224;-68
2024/03/08 12:46:00;;;;;;;1999.90;999.90;;;;;;;;;;4945940;28;20286;-69
2024/03/08 12:48:46;;;;;;;1999.90;999.90;;;;;;;;;;4950460;29;20213;-68
2024/03/08 12:51:33;;;;;;;1999.90;999.90;;;;;;;;;;4945591;29;20267;-69
2024/03/08 12:54:23;;;;;;;1999.90;999.90;;;;;;;;;;4946106;29;20220;-69
2024/03/08 12:57:08;;;;;;;1999.90;999.90;;;;;;;;;;4935083;29;20558;-69
2024/03/08 12:59:53;;;;;;;1999.90;999.90;;;;;;;;;;4942104;29;20216;-70
2024/03/08 13:02:39;;;;;;;1999.90;999.90;;;;;;;;;;4950608;29;20224;-71
2024/03/08 13:05:24;;;;;;;1999.90;999.90;;;;;;;;;;4951542;28;20196;-71
2024/03/08 13:08:12;;;;;;;1999.90;999.90;;;;;;;;;;4951547;29;20209;-71
2024/03/08 13:10:59;;;;;;;1999.90;999.90;;;;;;;;;;4950898;28;20228;-71
2024/03/08 13:13:44;;;;;;;1999.90;999.90;;;;;;;;;;4951043;29;20211;-71
2024/03/08 13:16:29;;;;;;;1999.90;999.90;;;;;;;;;;4951382;28;20236;-71
2024/03/08 13:19:14;;;;;;;1999.90;999.90;;;;;;;;;;4951441;29;20255;-71
2024/03/08 13:21:59;;;;;;;1999.90;999.90;;;;;;;;;;4950819;29;20220;-71
2024/03/08 13:24:45;;;;;;;1999.90;999.90;;;;;;;;;;4951088;29;20243;-71
2024/03/08 13:27:31;;;;;;;1999.90;999.90;;;;;;;;;;4951235;28;20586;-71
2024/03/08 13:30:18;;;;;;;1999.90;999.90;;;;;;;;;;4951063;29;20412;-71
2024/03/08 13:33:04;;;;;;;1999.90;999.90;;;;;;;;;;4951061;29;20443;-71
2024/03/08 13:35:49;;;;;;;1999.90;999.90;;;;;;;;;;4950969;28;20277;-71
2024/03/08 13:38:36;;;;;;;1999.90;999.90;;;;;;;;;;4951049;29;20224;-71
2024/03/08 13:41:24;;;;;;;1999.90;999.90;;;;;;;;;;4950938;29;20597;-71
2024/03/08 13:44:12;;;;;;;1999.90;999.90;;;;;;;;;;4950657;28;20209;-71
2024/03/08 13:46:57;;;;;;;1999.90;999.90;;;;;;;;;;4950793;28;20236;-71
2024/03/08 13:49:43;;;;;;;1999.90;999.90;;;;;;;;;;4949758;29;20431;-70
2024/03/08 13:52:29;;;;;;;1999.90;999.90;;;;;;;;;;4950854;29;20209;-71
2024/03/08 13:55:14;;;;;;;1999.90;999.90;;;;;;;;;;4949086;29;20208;-70
2024/03/08 13:58:00;;;;;;;1999.90;999.90;;;;;;;;;;4950232;29;20295;-71
2024/03/08 14:00:47;;;;;;;1999.90;999.90;;;;;;;;;;4948974;29;20219;-70
2024/03/08 14:03:33;;;;;;;1999.90;999.90;;;;;;;;;;4934958;29;20227;-70
2024/03/08 14:06:18;;;;;;;1999.90;999.90;;;;;;;;;;4936593;28;20735;-69
2024/03/08 14:09:03;;;;;;;1999.90;999.90;;;;;;;;;;4946276;29;20224;-70
2024/03/08 14:11:48;;;;;;;1999.90;999.90;;;;;;;;;;4950180;29;20330;-69
2024/03/08 14:14:34;;;;;;;1999.90;999.90;;;;;;;;;;4935187;29;20592;-70
2024/03/08 14:17:22;;;;;;;1999.90;999.90;;;;;;;;;;4935765;29;20229;-70
2024/03/08 14:20:09;;;;;;;1999.90;999.90;;;;;;;;;;4947438;29;20425;-70
2024/03/08 14:22:54;;;;;;;1999.90;999.90;;;;;;;;;;4950277;29;20982;-70
2024/03/08 14:25:39;;;;;;;1999.90;999.90;;;;;;;;;;4952893;28;20212;-69
2024/03/08 14:28:24;;;;;;;1999.90;999.90;;;;;;;;;;4948366;29;20241;-70
2024/03/08 14:31:11;;;;;;;1999.90;999.90;;;;;;;;;;4941090;29;20231;-70
2024/03/08 14:33:58;;;;;;;1999.90;999.90;;;;;;;;;;4952008;29;20210;-70
2024/03/08 14:36:44;;;;;;;1999.90;999.90;;;;;;;;;;4944721;28;20798;-69
2024/03/08 14:39:29;;;;;;;1999.90;999.90;;;;;;;;;;4948814;29;20533;-70
2024/03/08 14:42:14;;;;;;;1999.90;999.90;;;;;;;;;;4953187;29;20232;-70
2024/03/08 14:45:00;;;;;;;1999.90;999.90;;;;;;;;;;4953430;29;20209;-70
2024/03/08 14:47:45;;;;;;;1999.90;999.90;;;;;;;;;;4953516;28;20291;-70
2024/03/08 14:50:32;;;;;;;1999.90;999.90;;;;;;;;;;4953626;29;20205;-70
2024/03/08 14:53:18;;;;;;;1999.90;999.90;;;;;;;;;;4953331;29;20700;-70
2024/03/08 14:56:04;;;;;;;1999.90;999.90;;;;;;;;;;4953506;28;20225;-70
2024/03/08 14:58:51;;;;;;;1999.90;999.90;;;;;;;;;;4953458;29;20700;-70
2024/03/08 15:01:36;;;;;;;1999.90;999.90;;;;;;;;;;4953317;29;20224;-70
2024/03/08 15:04:21;;;;;;;1999.90;999.90;;;;;;;;;;4953428;29;20212;-70
2024/03/08 15:07:09;;;;;;;1999.90;999.90;;;;;;;;;;4952979;28;20244;-70
2024/03/08 15:09:57;;;;;;;1999.90;999.90;;;;;;;;;;4953455;29;20295;-70
2024/03/08 15:12:43;;;;;;;1999.90;999.90;;;;;;;;;;4952420;29;20560;-70
2024/03/08 15:15:30;;;;;;;1999.90;999.90;;;;;;;;;;4953199;28;20208;-70
2024/03/08 15:18:15;;;;;;;1999.90;999.90;;;;;;;;;;4953220;29;20327;-70
2024/03/08 15:21:00;;;;;;;1999.90;999.90;;;;;;;;;;4953127;29;20597;-71
2024/03/08 15:23:50;;;;;;;1999.90;999.90;;;;;;;;;;4952692;29;20399;-70
2024/03/08 15:26:35;;;;;;;1999.90;999.90;;;;;;;;;;4952786;28;20239;-70
2024/03/08 15:29:26;;;;;;;1999.90;999.90;;;;;;;;;;4952728;29;20416;-70
2024/03/08 15:32:16;;;;;;;1999.90;999.90;;;;;;;;;;4952795;29;20569;-70
2024/03/08 15:35:02;;;;;;;1999.90;999.90;;;;;;;;;;4952223;29;20201;-70
2024/03/08 15:37:47;;;;;;;1999.90;999.90;;;;;;;;;;4952576;29;20212;-70
2024/03/08 15:40:34;;;;;;;1999.90;999.90;;;;;;;;;;4952940;29;20204;-71
2024/03/08 15:43:19;;;;;;;1999.90;999.90;;;;;;;;;;4952628;29;20209;-70
2024/03/08 15:46:05;;;;;;;1999.90;999.90;;;;;;;;;;4952702;28;20240;-70
2024/03/08 15:48:51;;;;;;;1999.90;999.90;;;;;;;;;;4952767;29;20208;-70
2024/03/08 15:51:36;;;;;;;1999.90;999.90;;;;;;;;;;4952661;29;20585;-70
2024/03/08 15:54:21;;;;;;;1999.90;999.90;;;;;;;;;;4952752;29;20225;-70
2024/03/08 15:57:13;;;;;;;1999.90;999.90;;;;;;;;;;4952726;28;20238;-70
2024/03/08 16:00:00;;;;;;;1999.90;999.90;;;;;;;;;;4952553;29;20256;-71
2024/03/08 16:02:45;;;;;;;1999.90;999.90;;;;;;;;;;4951244;29;20437;-70
2024/03/08 16:05:30;;;;;;;1999.90;999.90;;;;;;;;;;4952687;28;20204;-70
2024/03/08 16:08:16;;;;;;;1999.90;999.90;;;;;;;;;;4952463;29;20208;-70
2024/03/08 16:11:05;;;;;;;1999.90;999.90;;;;;;;;;;4952198;29;20209;-70
2024/03/08 16:13:51;;;;;;;1999.90;999.90;;;;;;;;;;4952212;29;20739;-70
2024/03/08 16:16:36;;;;;;;1999.90;999.90;;;;;;;;;;4952310;28;20235;-70